Time;durP1;ratioP1;P1;durP2;ratioP2;P2;SDS_P1;SDS_P2;PMS_P1;PMS_P2;Temp;Humidity;BMP_temperature;BMP_pressure;BME280_temperature;BME280_humidity;BME280_pressure;Samples;Min_cycle;Max_cycle;Signal;HPM_P1;HPM_P2
2021/03/28 00:00:17;;;;;;;16.08;3.90;;;;;;;6.06;57.99;100143.69;4915171;29;20039;-69
2021/03/28 00:02:54;;;;;;;11.23;3.25;;;;;;;6.10;59.16;100132.63;4910847;29;20058;-70
2021/03/28 00:05:22;;;;;;;10.45;2.70;;;;;;;5.75;59.44;100142.94;4910238;29;20035;-69
2021/03/28 00:07:49;;;;;;;5.10;2.17;;;;;;;5.78;60.15;100140.44;4907881;29;20115;-69
2021/03/28 00:10:29;;;;;;;10.68;2.50;;;;;;;5.76;59.51;100143.81;4901881;29;20036;-69
2021/03/28 00:13:16;;;;;;;9.07;2.33;;;;;;;5.56;59.54;100151.03;4909035;29;20499;-71
2021/03/28 00:15:59;;;;;;;6.25;2.22;;;;;;;5.62;59.73;100140.94;4907654;29;20036;-70
2021/03/28 00:18:30;;;;;;;8.75;2.28;;;;;;;5.48;60.33;100147.44;4908049;29;20371;-72
2021/03/28 00:21:18;;;;;;;5.88;2.33;;;;;;;5.51;60.21;100144.91;4907270;29;20052;-71
2021/03/28 00:24:11;;;;;;;8.85;2.25;;;;;;;5.34;60.58;100140.25;4901722;29;20098;-68
2021/03/28 00:26:41;;;;;;;10.93;2.58;;;;;;;5.30;61.05;100142.69;4898506;29;20501;-67
2021/03/28 00:29:24;;;;;;;10.50;2.80;;;;;;;5.20;61.78;100151.88;4901542;29;20091;-68
2021/03/28 00:32:02;;;;;;;9.57;2.50;;;;;;;5.07;62.67;100145.53;4907413;29;20033;-68
2021/03/28 00:34:31;;;;;;;9.05;2.30;;;;;;;5.14;61.98;100136.31;4898426;29;20060;-67
2021/03/28 00:37:00;;;;;;;12.75;2.35;;;;;;;5.03;62.31;100137.72;4898474;29;20108;-67
2021/03/28 00:39:47;;;;;;;9.98;1.88;;;;;;;4.97;63.04;100145.25;4910590;29;20039;-68
2021/03/28 00:42:36;;;;;;;8.23;2.10;;;;;;;5.00;62.75;100138.50;4901079;29;20071;-67
2021/03/28 00:45:34;;;;;;;7.50;2.45;;;;;;;4.78;63.73;100139.63;4910613;29;20024;-68
2021/03/28 00:48:11;;;;;;;4.28;2.03;;;;;;;4.78;63.79;100137.06;4905618;29;20117;-67
2021/03/28 00:50:40;;;;;;;12.00;2.55;;;;;;;4.68;63.83;100137.63;4910877;29;20032;-67
2021/03/28 00:53:10;;;;;;;10.50;2.80;;;;;;;4.67;63.90;100137.59;4907609;29;20087;-67
2021/03/28 00:55:41;;;;;;;9.88;2.05;;;;;;;4.64;63.89;100139.28;4903196;29;20039;-68
2021/03/28 00:58:12;;;;;;;8.85;2.45;;;;;;;4.79;64.36;100137.97;4915586;29;20028;-67
2021/03/28 07:02:32;;;;;;;9.05;4.32;;;;;;;11.43;45.36;100231.22;5240203;23;20287;-74
2021/03/28 07:05:33;;;;;;;7.68;3.90;;;;;;;11.21;46.85;100232.88;4882124;29;20057;-74
2021/03/28 07:08:01;;;;;;;8.98;2.97;;;;;;;11.51;45.22;100224.31;4877983;29;20037;-75
2021/03/28 07:10:54;;;;;;;5.53;2.50;;;;;;;12.93;41.02;100215.47;4892121;29;20039;-74
2021/03/28 07:13:37;;;;;;;7.93;2.42;;;;;;;13.03;40.30;100222.38;4877655;29;20465;-74
2021/03/28 07:16:40;;;;;;;8.50;2.13;;;;;;;12.46;40.17;100219.09;4915766;23;20044;-71
2021/03/28 07:19:31;;;;;;;5.85;2.35;;;;;;;11.68;43.71;100215.66;4859659;29;20089;-68
2021/03/28 07:22:35;;;;;;;4.88;2.53;;;;;;;12.11;40.68;100210.50;4859138;29;20530;-68
2021/03/28 07:25:31;;;;;;;4.38;1.77;;;;;;;10.79;43.88;100211.13;4859387;29;20411;-70
2021/03/28 07:28:39;;;;;;;4.05;2.00;;;;;;;12.37;41.48;100208.72;4840837;29;20030;-71
2021/03/28 07:31:29;;;;;;;7.82;2.28;;;;;;;12.42;41.64;100222.56;4840702;29;20048;-72
2021/03/28 07:33:57;;;;;;;14.50;3.70;;;;;;;13.77;41.52;100219.31;4844064;29;20173;-70
2021/03/28 07:36:56;;;;;;;7.45;2.80;;;;;;;14.62;37.49;100218.56;4843981;29;20033;-70
2021/03/28 07:39:39;;;;;;;8.45;2.40;;;;;;;15.79;35.43;100217.84;4843939;29;20030;-69
2021/03/28 07:42:34;;;;;;;5.80;2.70;;;;;;;15.96;35.90;100228.06;4843893;29;20102;-68
2021/03/28 07:45:32;;;;;;;9.38;4.15;;;;;;;16.40;35.11;100229.03;4854214;29;20018;-69
2021/03/28 07:48:10;;;;;;;8.38;2.58;;;;;;;16.34;34.55;100230.00;4850892;29;20093;-71
2021/03/28 07:50:56;;;;;;;11.27;3.17;;;;;;;16.70;34.09;100231.03;4862246;29;20033;-70
2021/03/28 07:53:46;;;;;;;8.50;2.50;;;;;;;17.52;31.41;100231.97;4862087;29;20045;-70
2021/03/28 07:56:14;;;;;;;5.00;2.30;;;;;;;16.73;32.58;100222.31;4861979;29;20064;-70
2021/03/28 07:59:17;;;;;;;6.82;2.70;;;;;;;17.53;31.54;100220.59;4862103;29;20432;-68
2021/03/28 08:02:10;;;;;;;6.25;2.65;;;;;;;16.49;33.34;100222.72;4861768;29;20021;-68
2021/03/28 08:05:34;;;;;;;11.10;2.78;;;;;;;14.59;36.19;100235.97;4861496;29;20033;-68
2021/03/28 08:08:06;;;;;;;7.63;2.60;;;;;;;14.32;37.71;100248.41;4839407;29;20132;-71
2021/03/28 08:10:58;;;;;;;4.78;2.28;;;;;;;14.27;37.56;100255.41;4861807;29;20033;-72
2021/03/28 08:13:48;;;;;;;7.70;3.17;;;;;;;14.04;38.69;100273.84;4861747;29;20034;-73
2021/03/28 08:16:26;;;;;;;10.38;2.75;;;;;;;13.92;37.69;100279.13;4854990;29;20535;-71
2021/03/28 08:19:10;;;;;;;5.75;2.42;;;;;;;13.66;38.82;100275.84;4861731;29;20029;-72
2021/03/28 08:21:53;;;;;;;8.13;2.30;;;;;;;13.58;38.61;100279.34;4861715;29;20117;-71
2021/03/28 08:24:40;;;;;;;10.68;2.33;;;;;;;14.11;37.04;100285.94;4861633;29;20082;-72
2021/03/28 08:27:12;;;;;;;5.30;2.45;;;;;;;14.06;37.63;100292.06;4861544;29;20483;-71
2021/03/28 08:29:57;;;;;;;6.25;2.25;;;;;;;13.86;37.92;100294.81;4861626;29;20388;-72
2021/03/28 08:32:32;;;;;;;4.03;1.88;;;;;;;14.40;36.24;100293.50;4861363;29;20376;-71
2021/03/28 08:35:14;;;;;;;4.53;2.00;;;;;;;15.14;34.92;100277.97;4861461;29;20036;-71
2021/03/28 08:38:06;;;;;;;8.43;2.47;;;;;;;16.77;32.29;100286.78;4861488;29;20158;-71
2021/03/28 08:41:05;;;;;;;11.20;1.73;;;;;;;19.81;28.49;100280.06;4861381;29;20021;-71
2021/03/28 08:43:39;;;;;;;7.43;1.95;;;;;;;21.50;25.42;100275.91;4860645;29;20037;-71
2021/03/28 08:46:17;;;;;;;6.72;2.00;;;;;;;21.89;24.63;100281.38;4853557;29;20037;-72
2021/03/28 08:49:12;;;;;;;8.38;2.40;;;;;;;20.56;26.08;100286.38;4861257;29;20066;-72
2021/03/28 08:51:52;;;;;;;6.60;2.00;;;;;;;20.68;25.47;100280.66;4859128;29;20380;-70
2021/03/28 08:54:55;;;;;;;7.50;2.00;;;;;;;20.29;26.37;100278.44;4861036;29;20497;-70
2021/03/28 08:58:01;;;;;;;4.55;2.00;;;;;;;21.92;24.90;100283.91;4860949;29;20041;-70
2021/03/28 09:00:48;;;;;;;5.80;1.83;;;;;;;22.55;23.94;100289.22;4844233;29;20041;-70
2021/03/28 09:03:44;;;;;;;7.25;1.92;;;;;;;23.92;21.88;100286.53;4860845;29;20029;-71
2021/03/28 09:06:29;;;;;;;9.65;2.67;;;;;;;23.52;22.24;100283.13;4860607;29;20034;-70
2021/03/28 09:09:10;;;;;;;5.38;2.05;;;;;;;24.29;21.90;100277.63;4860968;29;20049;-70
2021/03/28 09:12:02;;;;;;;4.85;1.63;;;;;;;24.38;21.94;100273.69;4860696;29;20099;-71
2021/03/28 09:14:46;;;;;;;8.13;2.67;;;;;;;23.50;22.69;100271.78;4860736;29;20030;-70
2021/03/28 09:17:29;;;;;;;8.95;2.58;;;;;;;22.74;23.62;100276.94;4853829;29;20025;-71
2021/03/28 09:20:33;;;;;;;7.25;2.70;;;;;;;21.62;25.34;100280.72;4860756;29;20033;-70
2021/03/28 09:23:32;;;;;;;8.80;2.88;;;;;;;24.16;22.20;100266.78;4860216;29;20500;-71
2021/03/28 09:26:11;;;;;;;6.50;2.08;;;;;;;23.44;23.12;100256.16;4860536;29;20108;-71
2021/03/28 09:28:55;;;;;;;5.13;2.08;;;;;;;25.85;20.20;100259.50;4860494;29;20037;-71
2021/03/28 09:31:46;;;;;;;4.57;1.70;;;;;;;23.96;21.14;100251.03;4860440;29;20380;-71
2021/03/28 09:34:47;;;;;;;7.30;2.42;;;;;;;24.53;19.77;100249.03;4860487;29;20022;-71
2021/03/28 09:37:48;;;;;;;8.90;2.25;;;;;;;25.08;20.22;100243.47;4860246;29;20395;-71
2021/03/28 09:40:25;;;;;;;6.20;2.40;;;;;;;24.62;20.94;100251.22;4860340;29;20040;-72
2021/03/28 09:43:06;;;;;;;7.65;1.80;;;;;;;25.49;20.15;100245.66;4860133;29;20033;-71
2021/03/28 09:45:40;;;;;;;6.22;1.77;;;;;;;24.30;21.13;100250.19;4851611;29;20230;-71
2021/03/28 09:48:31;;;;;;;9.43;2.42;;;;;;;23.55;21.68;100246.81;4851801;29;20037;-72
2021/03/28 09:51:17;;;;;;;6.65;1.60;;;;;;;25.26;19.46;100231.00;4850562;29;20086;-73
2021/03/28 09:54:12;;;;;;;7.60;3.60;;;;;;;23.70;20.41;100234.66;4851795;29;20030;-71
2021/03/28 09:56:59;;;;;;;4.43;1.58;;;;;;;21.01;21.96;100246.09;4851615;29;20506;-72
2021/03/28 09:59:28;;;;;;;3.55;1.60;;;;;;;20.10;22.05;100244.91;4850596;29;20080;-73
2021/03/28 10:02:00;;;;;;;;;;;;;;;20.50;22.43;100241.78;4851759;29;20496;-72
2021/03/28 10:04:25;;;;;;;3.58;1.30;;;;;;;21.47;20.77;100233.84;4851573;29;19956;-72
2021/03/28 10:06:58;;;;;;;3.65;1.27;;;;;;;20.74;21.57;100238.31;4851583;29;20112;-71
2021/03/28 10:09:39;;;;;;;4.93;1.30;;;;;;;21.19;22.15;100224.31;4851626;29;20037;-71
2021/03/28 10:12:12;;;;;;;13.60;5.53;;;;;;;21.81;21.85;100217.50;4851383;29;20196;-71
2021/03/28 10:14:40;;;;;;;8.05;1.45;;;;;;;21.75;21.36;100233.56;4845665;29;20029;-71
2021/03/28 10:17:27;;;;;;;4.82;1.55;;;;;;;20.64;22.98;100221.09;4864950;29;20088;-71
2021/03/28 10:20:02;;;;;;;3.67;1.20;;;;;;;20.37;22.71;100219.44;4847214;29;20033;-70
2021/03/28 10:22:57;;;;;;;5.15;1.40;;;;;;;21.30;21.75;100222.16;4843709;29;20112;-71
2021/03/28 10:25:40;;;;;;;4.25;1.20;;;;;;;20.79;21.35;100228.47;4840350;29;20045;-71
2021/03/28 10:28:11;;;;;;;6.78;1.90;;;;;;;20.74;21.62;100214.59;4844023;29;20119;-71
2021/03/28 10:31:19;;;;;;;5.97;1.70;;;;;;;22.69;21.02;100212.84;4838986;29;20093;-71
2021/03/28 10:33:58;;;;;;;5.63;1.50;;;;;;;22.39;20.72;100215.09;4837305;29;20030;-71
2021/03/28 10:36:53;;;;;;;6.40;1.63;;;;;;;22.09;20.85;100209.28;4836332;29;20034;-71
2021/03/28 10:39:27;;;;;;;4.22;1.52;;;;;;;21.61;21.94;100210.38;4837342;29;20136;-71
2021/03/28 10:42:01;;;;;;;8.05;3.10;;;;;;;19.76;24.38;100214.44;4836319;29;20040;-71
2021/03/28 10:44:49;;;;;;;2.92;1.80;;;;;;;23.14;20.30;100205.56;4837390;29;20056;-71
2021/03/28 10:47:33;;;;;;;4.37;1.43;;;;;;;22.18;21.18;100210.72;4837214;29;20515;-71
2021/03/28 10:50:04;;;;;;;4.82;2.40;;;;;;;22.54;20.94;100192.41;4841292;29;21694;-71
2021/03/28 10:52:53;;;;;;;5.20;2.17;;;;;;;21.45;22.48;100204.00;4845491;29;20038;-71
2021/03/28 10:55:37;;;;;;;;;;;;;;;21.46;22.45;100200.44;4843485;29;20038;-71
2021/03/28 10:58:30;;;;;;;8.52;2.33;;;;;;;21.63;22.81;100191.88;4843216;29;19920;-71
2021/03/28 11:01:32;;;;;;;6.68;2.22;;;;;;;21.79;22.76;100182.41;4864522;29;20030;-71
2021/03/28 11:04:23;;;;;;;4.82;1.77;;;;;;;23.93;20.88;100174.38;4851080;29;20065;-72
2021/03/28 11:07:06;;;;;;;4.57;1.70;;;;;;;24.34;19.46;100162.53;4852227;29;20057;-72
2021/03/28 11:09:51;;;;;;;5.88;1.90;;;;;;;23.70;20.58;100165.81;4854107;29;20022;-72
2021/03/28 11:12:22;;;;;;;6.40;1.80;;;;;;;22.82;20.91;100171.75;4854183;29;20120;-72
2021/03/28 11:15:01;;;;;;;7.20;1.58;;;;;;;22.69;21.04;100162.66;4854332;29;20030;-70
2021/03/28 11:18:08;;;;;;;5.10;1.42;;;;;;;22.48;21.06;100150.41;4854532;29;20034;-69
2021/03/28 11:20:52;;;;;;;3.15;1.38;;;;;;;20.79;22.39;100161.72;4854276;29;20064;-71
2021/03/28 11:24:09;;;;;;;5.47;2.05;;;;;;;22.00;21.70;100154.22;4854150;29;20129;-70
2021/03/28 11:26:37;;;;;;;4.68;1.67;;;;;;;21.39;21.90;100143.63;4830354;29;20097;-71
2021/03/28 11:29:29;;;;;;;3.78;1.73;;;;;;;21.56;21.15;100154.31;4846635;29;20037;-70
2021/03/28 11:32:00;;;;;;;6.05;1.67;;;;;;;22.20;21.34;100133.16;4846571;29;20610;-73
2021/03/28 11:34:38;;;;;;;5.25;1.60;;;;;;;20.84;22.41;100148.38;4846855;29;20037;-71
2021/03/28 11:37:41;;;;;;;2.90;1.70;;;;;;;21.11;22.45;100142.03;4846180;29;20072;-71
2021/03/28 11:40:07;;;;;;;4.78;1.60;;;;;;;22.57;21.55;100139.41;4841548;29;20040;-71
2021/03/28 11:42:32;;;;;;;4.03;1.50;;;;;;;23.62;19.86;100130.91;4838681;29;20065;-72
2021/03/28 11:45:00;;;;;;;2.88;1.40;;;;;;;23.36;20.36;100137.50;4838713;29;20189;-72
2021/03/28 11:47:34;;;;;;;3.80;1.40;;;;;;;22.98;20.40;100139.34;4839197;29;20034;-72
2021/03/28 11:50:04;;;;;;;6.78;1.75;;;;;;;21.73;21.54;100141.28;4839266;29;20049;-68
2021/03/28 11:52:48;;;;;;;5.82;1.85;;;;;;;21.07;22.05;100134.31;4838844;29;20347;-68
2021/03/28 11:55:40;;;;;;;5.63;2.40;;;;;;;21.63;21.29;100124.13;4843411;29;20033;-71
2021/03/28 11:58:46;;;;;;;2.53;1.42;;;;;;;22.24;20.92;100121.53;4847802;29;20061;-72
2021/03/28 12:01:31;;;;;;;4.82;1.67;;;;;;;22.51;20.70;100108.00;4843915;29;20051;-68
2021/03/28 12:04:36;;;;;;;7.40;1.67;;;;;;;21.82;20.35;100111.03;4848088;29;20033;-71
2021/03/28 12:07:54;;;;;;;4.10;1.60;;;;;;;20.79;21.48;100109.91;4848144;29;20044;-72
2021/03/28 12:10:34;;;;;;;4.97;1.60;;;;;;;21.29;21.32;100103.53;4831248;29;20531;-70
2021/03/28 12:13:26;;;;;;;3.88;1.38;;;;;;;20.45;22.41;100106.78;4850573;29;20459;-70
2021/03/28 12:15:52;;;;;;;3.92;1.85;;;;;;;18.85;24.98;100108.63;4852423;29;20037;-72
2021/03/28 12:18:20;;;;;;;4.05;1.48;;;;;;;18.55;25.65;100099.03;4852289;29;20181;-72
2021/03/28 12:20:47;;;;;;;3.22;1.42;;;;;;;17.92;26.18;100093.78;4853072;29;20037;-68
2021/03/28 12:23:26;;;;;;;6.43;1.40;;;;;;;17.44;26.81;100095.88;4852975;29;20041;-70
2021/03/28 12:26:19;;;;;;;7.60;2.00;;;;;;;17.58;26.44;100091.16;4852635;29;20060;-71
2021/03/28 12:28:44;;;;;;;5.78;1.88;;;;;;;17.10;26.99;100091.44;4853168;29;20026;-71
2021/03/28 12:31:34;;;;;;;7.07;2.28;;;;;;;16.19;27.32;100102.97;4852826;29;20434;-71
2021/03/28 12:34:08;;;;;;;5.65;1.80;;;;;;;16.24;29.31;100095.03;4852932;29;20395;-71
2021/03/28 12:37:02;;;;;;;4.35;2.13;;;;;;;16.87;28.82;100094.59;4852605;29;20487;-71
2021/03/28 12:39:31;;;;;;;7.20;2.50;;;;;;;17.16;27.88;100090.44;4853008;29;20041;-68
2021/03/28 12:42:02;;;;;;;4.68;1.83;;;;;;;17.10;28.21;100091.44;4852639;29;20044;-71
2021/03/28 12:44:38;;;;;;;4.68;1.75;;;;;;;17.22;27.99;100085.06;4852663;29;20033;-70
2021/03/28 12:47:15;;;;;;;5.47;1.75;;;;;;;16.51;28.99;100077.06;4852337;29;20037;-70
2021/03/28 12:49:54;;;;;;;4.60;1.85;;;;;;;16.80;28.80;100065.97;4852570;29;20262;-70
2021/03/28 12:52:23;;;;;;;5.25;2.30;;;;;;;16.98;27.91;100065.56;4851925;29;20065;-70
2021/03/28 12:54:49;;;;;;;4.47;1.92;;;;;;;16.72;29.26;100067.91;4852636;29;20033;-70
2021/03/28 12:57:26;;;;;;;5.30;1.90;;;;;;;16.82;28.95;100067.66;4852322;29;20483;-70
2021/03/28 12:59:58;;;;;;;4.63;1.83;;;;;;;16.67;29.21;100060.97;4852457;29;20177;-70
2021/03/28 13:02:32;;;;;;;6.53;1.80;;;;;;;16.61;28.44;100061.13;4852258;29;20069;-70
2021/03/28 13:05:01;;;;;;;5.53;1.75;;;;;;;16.54;28.52;100048.22;4852563;29;20049;-68
2021/03/28 13:07:52;;;;;;;8.60;2.17;;;;;;;16.80;29.96;100052.91;4852230;29;20094;-68
2021/03/28 13:10:32;;;;;;;5.80;1.77;;;;;;;16.41;29.40;100052.84;4852123;29;20128;-68
2021/03/28 13:12:59;;;;;;;4.03;1.70;;;;;;;16.47;29.76;100044.84;4852130;29;20040;-68
2021/03/28 13:15:36;;;;;;;5.70;1.70;;;;;;;16.48;29.37;100038.72;4851376;29;20522;-68
2021/03/28 13:18:32;;;;;;;4.53;2.17;;;;;;;16.69;28.69;100033.03;4892836;23;20049;-78
2021/03/28 13:20:57;;;;;;;5.63;1.77;;;;;;;16.59;29.08;100028.91;4854115;29;20049;-77
2021/03/28 13:23:50;;;;;;;4.88;1.58;;;;;;;16.95;28.74;100028.97;4852926;29;20030;-76
2021/03/28 13:26:20;;;;;;;2.47;1.35;;;;;;;16.90;28.35;100025.59;4852695;29;20045;-77
2021/03/28 13:29:21;;;;;;;3.47;1.65;;;;;;;16.42;28.46;100023.16;4853703;29;20025;-77
2021/03/28 13:31:59;;;;;;;2.17;1.40;;;;;;;16.50;28.35;100021.25;4852955;29;20085;-77
2021/03/28 13:34:36;;;;;;;3.47;1.50;;;;;;;17.06;28.09;100010.38;4853216;29;20271;-77
2021/03/28 13:37:09;;;;;;;5.20;1.48;;;;;;;16.78;27.58;100004.94;4852853;29;21546;-78
2021/03/28 13:40:22;;;;;;;8.45;2.20;;;;;;;16.81;28.21;99994.41;4852897;29;20034;-77
2021/03/28 13:42:55;;;;;;;6.10;1.50;;;;;;;16.82;29.26;99990.88;4853967;29;20045;-77
2021/03/28 13:45:24;;;;;;;3.25;1.50;;;;;;;16.83;27.39;99990.88;4853181;29;20049;-76
2021/03/28 13:47:56;;;;;;;5.38;2.33;;;;;;;17.30;28.06;99987.94;4852541;29;20399;-76
2021/03/28 13:51:01;;;;;;;4.53;1.77;;;;;;;17.46;27.42;99976.16;4853647;29;20402;-76
2021/03/28 13:53:31;;;;;;;6.68;1.92;;;;;;;17.59;26.97;99980.16;4853280;29;20025;-77
2021/03/28 13:56:06;;;;;;;5.50;1.70;;;;;;;17.17;27.34;99983.03;4858337;29;20039;-77
2021/03/28 13:58:38;;;;;;;5.15;1.63;;;;;;;16.64;28.12;99974.69;4854001;29;20048;-78
2021/03/28 14:01:14;;;;;;;5.85;1.77;;;;;;;16.75;28.29;99984.94;4852362;29;20029;-78
2021/03/28 14:03:42;;;;;;;6.88;1.33;;;;;;;17.10;28.01;99985.84;4852373;29;20052;-78
2021/03/28 14:06:27;;;;;;;10.77;2.00;;;;;;;17.62;28.13;99985.31;4852076;29;20033;-77
2021/03/28 14:08:57;;;;;;;7.18;1.70;;;;;;;17.81;26.85;99974.38;4852875;29;20052;-78
2021/03/28 14:11:26;;;;;;;3.83;1.58;;;;;;;17.38;27.12;99975.50;4852161;29;20034;-78
2021/03/28 14:14:17;;;;;;;6.35;1.80;;;;;;;17.37;26.80;99971.19;4852502;29;20033;-78
2021/03/28 14:16:44;;;;;;;3.25;1.60;;;;;;;17.34;27.74;99974.72;4852198;29;20032;-78
2021/03/28 14:19:19;;;;;;;7.35;1.70;;;;;;;17.16;27.52;99968.22;4852624;29;20488;-78
2021/03/28 14:21:44;;;;;;;5.15;1.63;;;;;;;17.23;27.64;99970.69;4853576;29;20053;-77
2021/03/28 14:24:14;;;;;;;3.97;1.38;;;;;;;17.37;28.07;99969.41;4866361;29;20030;-78
2021/03/28 14:26:39;;;;;;;;;;;;;;;17.39;27.88;99962.34;4867027;29;20414;-78
2021/03/28 14:29:28;;;;;;;5.40;1.58;;;;;;;17.47;27.66;99960.41;4853363;29;19975;-78
2021/03/28 14:31:59;;;;;;;5.88;1.80;;;;;;;17.50;26.86;99948.97;4852580;29;20033;-78
2021/03/28 14:34:25;;;;;;;3.15;1.30;;;;;;;17.25;27.57;99950.53;4852659;29;20531;-78
2021/03/28 14:37:28;;;;;;;3.05;1.67;;;;;;;17.21;26.72;99945.38;4851637;29;20156;-78
2021/03/28 14:40:34;;;;;;;3.90;1.50;;;;;;;16.97;27.32;99948.63;4852034;29;20491;-78
2021/03/28 14:43:00;;;;;;;5.50;1.60;;;;;;;17.00;27.40;99945.06;4855065;29;20040;-77
2021/03/28 14:45:50;;;;;;;3.83;1.85;;;;;;;17.15;27.97;99948.13;4869739;29;20033;-78
2021/03/28 14:48:32;;;;;;;4.10;1.63;;;;;;;17.35;27.29;99950.22;4855436;29;20047;-78
2021/03/28 14:51:22;;;;;;;5.35;1.60;;;;;;;17.34;27.30;99947.66;4855517;29;20097;-78
2021/03/28 14:54:12;;;;;;;2.95;1.58;;;;;;;17.21;27.51;99941.88;4865860;29;20037;-78
2021/03/28 14:56:46;;;;;;;7.00;1.73;;;;;;;17.25;27.06;99947.91;4855649;29;20040;-78
2021/03/28 14:59:20;;;;;;;7.13;1.58;;;;;;;16.90;27.09;99941.81;4855497;29;20089;-78
2021/03/28 15:01:51;;;;;;;4.45;1.70;;;;;;;17.00;27.42;99945.94;4869940;29;20040;-78
2021/03/28 15:04:54;;;;;;;6.28;1.98;;;;;;;16.92;27.68;99940.00;4854641;29;20443;-78
2021/03/28 15:07:38;;;;;;;4.88;1.67;;;;;;;17.04;27.70;99939.72;4855679;29;20112;-77
2021/03/28 15:10:28;;;;;;;5.80;1.92;;;;;;;17.04;27.47;99955.44;4855588;29;20116;-78
2021/03/28 15:12:57;;;;;;;;;;;;;;;17.07;27.15;99947.50;4856181;29;20034;-78
2021/03/28 15:15:32;;;;;;;5.88;1.60;;;;;;;16.97;27.75;99953.88;4855163;29;20028;-78
2021/03/28 15:18:19;;;;;;;3.97;1.58;;;;;;;17.10;27.66;99944.78;4855839;29;20068;-78
2021/03/28 15:20:56;;;;;;;6.70;1.45;;;;;;;17.20;27.41;99946.25;4856249;29;20655;-78
2021/03/28 15:23:31;;;;;;;5.18;1.90;;;;;;;17.36;27.18;99948.50;4855139;29;20101;-78
2021/03/28 15:26:15;;;;;;;6.30;2.05;;;;;;;17.20;27.86;99941.03;4855397;29;21370;-78
2021/03/28 15:28:45;;;;;;;4.85;1.77;;;;;;;17.19;27.30;99944.56;4855671;29;20072;-78
2021/03/28 15:31:35;;;;;;;6.20;1.92;;;;;;;17.17;27.85;99943.75;4855475;29;20061;-78
2021/03/28 15:34:08;;;;;;;3.25;1.48;;;;;;;17.04;27.50;99939.72;4855272;29;20029;-78
2021/03/28 15:37:01;;;;;;;4.20;1.48;;;;;;;16.89;28.00;99947.97;4855031;29;20037;-78
2021/03/28 15:40:00;;;;;;;4.18;1.55;;;;;;;16.84;28.44;99945.47;4855411;29;20057;-78
2021/03/28 15:42:54;;;;;;;3.88;1.40;;;;;;;16.91;28.46;99943.53;4854935;29;20037;-78
2021/03/28 15:45:37;;;;;;;5.65;2.28;;;;;;;16.70;28.65;99943.13;4854789;29;20029;-78
2021/03/28 15:48:16;;;;;;;5.25;1.70;;;;;;;16.65;28.16;99937.16;4854744;29;20090;-78
2021/03/28 15:50:47;;;;;;;3.58;1.52;;;;;;;16.87;28.89;99940.13;4855273;29;20037;-78
2021/03/28 15:53:37;;;;;;;3.65;1.52;;;;;;;16.72;28.89;99934.41;4868774;29;20029;-78
2021/03/28 15:56:19;;;;;;;3.05;1.65;;;;;;;16.69;29.20;99936.19;4869066;29;20030;-77
2021/03/28 15:59:09;;;;;;;5.80;1.90;;;;;;;16.72;29.02;99931.78;4855973;29;20622;-78
2021/03/28 16:02:13;;;;;;;2.92;1.40;;;;;;;16.70;30.33;99929.19;4856092;29;21380;-76
2021/03/28 16:04:47;;;;;;;6.95;1.73;;;;;;;15.79;32.62;99937.34;4857484;29;21412;-77
2021/03/28 16:07:26;;;;;;;6.55;2.00;;;;;;;15.83;33.79;99941.63;4856377;29;20052;-77
2021/03/28 16:09:58;;;;;;;;;;;;;;;15.92;33.50;99944.06;4871340;29;20104;-77
2021/03/28 16:12:35;;;;;;;6.80;2.17;;;;;;;16.06;35.47;99942.00;4856041;29;19912;-77
2021/03/28 16:15:28;;;;;;;6.05;1.95;;;;;;;16.33;34.54;99940.53;4855810;29;20044;-77
2021/03/28 16:18:04;;;;;;;5.07;2.08;;;;;;;15.93;34.69;99945.75;4856241;29;20041;-77
2021/03/28 16:20:44;;;;;;;6.40;1.70;;;;;;;16.27;34.11;99952.88;4855785;29;20972;-77
2021/03/28 16:24:00;;;;;;;5.93;1.73;;;;;;;15.79;35.34;99953.03;4870649;29;20499;-76
2021/03/28 16:26:30;;;;;;;9.43;2.30;;;;;;;15.55;35.93;99949.97;4853204;29;20063;-77
2021/03/28 16:29:19;;;;;;;6.22;1.58;;;;;;;15.77;35.68;99965.28;4855121;29;20117;-76
2021/03/28 16:31:53;;;;;;;6.97;2.10;;;;;;;15.49;36.00;99960.56;4854442;29;20018;-77
2021/03/28 16:34:34;;;;;;;6.35;2.05;;;;;;;15.50;35.48;99964.03;4854335;29;20407;-76
2021/03/28 16:37:18;;;;;;;7.57;1.98;;;;;;;15.05;36.08;99964.81;4853872;29;20025;-77
2021/03/28 16:39:43;;;;;;;6.38;1.85;;;;;;;15.04;36.35;99973.56;4868471;29;20042;-77
2021/03/28 16:42:11;;;;;;;6.00;1.75;;;;;;;14.91;36.71;99977.25;4854165;29;20037;-76
2021/03/28 16:44:50;;;;;;;5.95;1.92;;;;;;;15.03;36.93;99984.00;4853630;29;20491;-76
2021/03/28 16:47:24;;;;;;;5.03;1.73;;;;;;;14.98;36.80;99981.47;4853283;29;20037;-76
2021/03/28 16:50:22;;;;;;;8.73;3.30;;;;;;;15.03;36.55;99982.25;4853008;29;20029;-77
2021/03/28 16:53:06;;;;;;;4.68;2.25;;;;;;;14.69;36.53;99986.28;4851801;29;20550;-77
2021/03/28 16:55:37;;;;;;;45.65;30.55;;;;;;;14.53;37.51;99989.13;4854401;29;20049;-78
2021/03/28 16:58:05;;;;;;;5.88;2.75;;;;;;;14.56;36.44;99996.06;4854134;29;20035;-78
2021/03/28 17:00:34;;;;;;;5.85;2.08;;;;;;;14.39;36.42;99998.84;4852733;29;20041;-79
2021/03/28 17:03:26;;;;;;;7.07;2.67;;;;;;;14.28;36.98;100001.63;4852759;29;20696;-72
2021/03/28 17:05:57;;;;;;;5.68;2.10;;;;;;;14.06;36.49;100006.22;4851958;29;20682;-74
2021/03/28 17:08:52;;;;;;;5.95;2.30;;;;;;;14.09;36.61;99995.78;4852685;29;20073;-76
2021/03/28 17:11:20;;;;;;;7.32;1.77;;;;;;;14.06;36.38;100006.22;4852240;29;20041;-76
2021/03/28 17:13:53;;;;;;;4.65;2.10;;;;;;;13.90;36.57;100007.31;4866346;29;20066;-76
2021/03/28 17:16:24;;;;;;;9.50;2.60;;;;;;;13.77;37.17;100003.13;4852164;29;20041;-75
2021/03/28 17:18:53;;;;;;;8.18;3.58;;;;;;;13.78;36.79;100004.81;4851211;29;20049;-76
2021/03/28 17:21:33;;;;;;;11.55;4.70;;;;;;;13.58;37.06;100013.72;4852060;29;20033;-75
2021/03/28 17:24:03;;;;;;;6.28;2.50;;;;;;;13.37;37.91;100024.34;4841535;29;20160;-73
2021/03/28 17:26:33;;;;;;;6.65;1.80;;;;;;;13.31;37.78;100021.81;4839057;29;20041;-71
2021/03/28 17:29:26;;;;;;;6.85;2.47;;;;;;;13.20;38.05;100034.00;4846715;29;21915;-71
2021/03/28 17:32:04;;;;;;;7.80;2.00;;;;;;;13.04;37.28;100026.34;4826979;29;20029;-73
2021/03/28 17:34:36;;;;;;;4.97;1.92;;;;;;;12.97;37.77;100032.47;4827023;29;21332;-67
2021/03/28 17:37:03;;;;;;;6.20;2.00;;;;;;;12.82;37.40;100035.19;4826745;29;20514;-67
2021/03/28 17:39:28;;;;;;;4.70;1.65;;;;;;;12.88;37.57;100044.69;4828236;29;20118;-68
2021/03/28 17:41:56;;;;;;;5.70;2.17;;;;;;;12.65;37.99;100043.09;4821341;29;20045;-80
2021/03/28 17:44:24;;;;;;;7.40;2.47;;;;;;;12.63;38.07;100043.97;4821362;29;20052;-76
2021/03/28 17:46:50;;;;;;;7.90;1.92;;;;;;;12.53;38.54;100044.03;4835337;29;20129;-76
2021/03/28 17:49:33;;;;;;;6.35;2.15;;;;;;;12.51;38.13;100040.56;4818457;29;20116;-82
2021/03/28 17:52:00;;;;;;;4.45;2.00;;;;;;;12.52;38.72;100039.72;4820800;29;20040;-76
2021/03/28 17:54:33;;;;;;;7.88;2.05;;;;;;;12.37;38.24;100034.56;4837139;29;20053;-76
2021/03/28 17:57:01;;;;;;;5.75;1.67;;;;;;;12.30;38.41;100045.88;4827952;29;20035;-75
2021/03/28 17:59:36;;;;;;;4.68;1.80;;;;;;;12.17;38.78;100045.06;4835798;29;20390;-76
2021/03/28 18:02:19;;;;;;;4.18;1.80;;;;;;;12.13;39.11;100055.47;4833068;29;20172;-76
2021/03/28 18:04:48;;;;;;;5.75;2.22;;;;;;;11.95;39.16;100049.47;4835223;29;20116;-76
2021/03/28 18:07:17;;;;;;;8.23;2.20;;;;;;;11.82;40.48;100048.63;4827438;29;20100;-76
2021/03/28 18:09:49;;;;;;;8.85;2.65;;;;;;;11.69;41.91;100053.81;4828042;29;20065;-77
2021/03/28 18:12:20;;;;;;;11.15;3.15;;;;;;;11.54;42.36;100058.19;4815608;29;20465;-76
2021/03/28 18:14:46;;;;;;;7.60;2.90;;;;;;;11.45;42.94;100068.56;4814043;29;20077;-76
2021/03/28 18:17:15;;;;;;;4.82;2.08;;;;;;;11.35;43.21;100072.03;4804602;29;20034;-76
2021/03/28 18:19:41;;;;;;;5.23;2.23;;;;;;;11.21;43.26;100069.44;4818152;29;20053;-76
2021/03/28 18:22:10;;;;;;;11.90;2.50;;;;;;;10.95;44.17;100076.34;4826793;29;20040;-76
2021/03/28 18:24:38;;;;;;;8.68;2.55;;;;;;;10.75;44.66;100074.59;4825975;29;20033;-76
2021/03/28 18:27:13;;;;;;;9.88;2.78;;;;;;;10.74;45.15;100087.56;4833632;29;20090;-76
2021/03/28 18:30:06;;;;;;;5.38;2.53;;;;;;;10.64;45.33;100080.63;4839254;29;20044;-76
2021/03/28 18:32:36;;;;;;;8.85;4.30;;;;;;;10.57;45.64;100081.44;4836940;29;20090;-76
2021/03/28 18:35:07;;;;;;;11.98;5.07;;;;;;;10.59;45.72;100082.28;4836643;29;20042;-76